Time;durP1;ratioP1;P1;durP2;ratioP2;P2;SDS_P1;SDS_P2;PMS_P1;PMS_P2;Temp;Humidity;BMP_temperature;BMP_pressure;BME280_temperature;BME280_humidity;BME280_pressure;Samples;Min_cycle;Max_cycle;Signal;HPM_P1;HPM_P2
2023/09/15 00:02:18;;;;;;;0.20;0.20;;;;;;;10.31;100.00;101852.59;5115110;28;20409;-50
2023/09/15 00:04:46;;;;;;;0.10;0.10;;;;;;;10.26;100.00;101848.91;5115299;28;20106;-49
2023/09/15 00:07:14;;;;;;;0.20;0.20;;;;;;;10.34;100.00;101851.03;5114854;28;20034;-49
2023/09/15 00:09:39;;;;;;;0.20;0.20;;;;;;;10.31;100.00;101850.00;5115488;28;20035;-49
2023/09/15 00:12:07;;;;;;;0.20;0.20;;;;;;;10.32;100.00;101850.06;5115399;28;20071;-49
2023/09/15 00:14:34;;;;;;;;;;;;;;;10.40;100.00;101853.03;5114596;28;20058;-50
2023/09/15 00:16:59;;;;;;;0.10;0.10;;;;;;;10.26;100.00;101846.34;5115038;28;20290;-48
2023/09/15 00:19:25;;;;;;;0.20;0.20;;;;;;;10.24;100.00;101845.38;5114771;28;20509;-48
2023/09/15 00:21:51;;;;;;;0.10;0.10;;;;;;;10.17;100.00;101845.09;5114295;28;20028;-50
2023/09/15 00:24:16;;;;;;;0.10;0.10;;;;;;;10.10;100.00;101837.88;5114701;28;20100;-48
2023/09/15 00:26:43;;;;;;;0.20;0.20;;;;;;;10.10;100.00;101837.88;5114244;28;20023;-48
2023/09/15 00:29:09;;;;;;;0.20;0.20;;;;;;;10.07;100.00;101834.28;5114817;28;20020;-49
2023/09/15 00:31:34;;;;;;;0.13;0.13;;;;;;;9.98;100.00;101838.19;5114832;28;20042;-50
2023/09/15 00:34:00;;;;;;;0.20;0.20;;;;;;;9.96;100.00;101841.50;5114181;28;20556;-48
2023/09/15 00:36:25;;;;;;;0.20;0.20;;;;;;;9.96;100.00;101829.50;5114454;28;20039;-48
2023/09/15 00:38:50;;;;;;;0.20;0.20;;;;;;;9.96;100.00;101828.63;5114941;28;20024;-49
2023/09/15 00:41:18;;;;;;;0.17;0.17;;;;;;;9.86;100.00;101828.19;5113690;28;20019;-49
2023/09/15 00:43:43;;;;;;;0.20;0.20;;;;;;;9.80;100.00;101822.72;5114859;28;20062;-48
2023/09/15 00:46:10;;;;;;;0.17;0.17;;;;;;;9.82;100.00;101827.94;5114921;28;20405;-48
2023/09/15 00:48:39;;;;;;;0.20;0.20;;;;;;;9.85;100.00;101825.50;5113659;28;20490;-46
2023/09/15 00:51:07;;;;;;;0.20;0.20;;;;;;;9.80;100.00;101825.31;5114691;28;20032;-49
2023/09/15 00:53:35;;;;;;;0.20;0.20;;;;;;;9.70;100.00;101821.38;5114213;28;20115;-49
2023/09/15 00:56:01;;;;;;;0.20;0.20;;;;;;;9.74;100.00;101827.56;5113547;28;20031;-49
2023/09/15 00:58:27;;;;;;;0.20;0.20;;;;;;;9.78;100.00;101816.63;5114054;28;20020;-50
2023/09/15 01:00:52;;;;;;;0.20;0.20;;;;;;;9.74;100.00;101822.44;5113495;28;20363;-49
2023/09/15 01:03:21;;;;;;;0.20;0.20;;;;;;;9.78;100.00;101826.91;5113506;28;20020;-50
2023/09/15 01:05:48;;;;;;;0.20;0.20;;;;;;;9.75;100.00;101820.72;5114343;28;20034;-49
2023/09/15 01:08:13;;;;;;;0.10;0.10;;;;;;;9.73;100.00;101818.09;5114015;28;20054;-48
2023/09/15 01:10:38;;;;;;;0.20;0.20;;;;;;;9.68;100.00;101817.88;5113327;28;20019;-49
2023/09/15 01:13:04;;;;;;;0.17;0.17;;;;;;;9.67;100.00;101817.78;5114076;28;20050;-49
2023/09/15 01:15:36;;;;;;;0.10;0.10;;;;;;;9.62;100.00;101816.66;5113733;28;20162;-50
2023/09/15 01:18:33;;;;;;;0.20;0.20;;;;;;;9.68;100.00;101807.59;5113235;28;20374;-50
2023/09/15 01:21:26;;;;;;;0.20;0.20;;;;;;;9.68;100.00;101809.25;5113995;28;20031;-49
2023/09/15 01:24:09;;;;;;;0.20;0.20;;;;;;;9.70;100.00;101808.50;5113096;28;20039;-50
2023/09/15 01:26:53;;;;;;;0.20;0.20;;;;;;;9.69;100.00;101808.44;5113751;28;20058;-50
2023/09/15 01:29:43;;;;;;;0.20;0.20;;;;;;;9.65;100.00;101806.53;5113550;28;20050;-48
2023/09/15 01:32:09;;;;;;;0.20;0.20;;;;;;;9.63;100.00;101797.84;5113227;28;20077;-48
2023/09/15 01:34:36;;;;;;;0.20;0.20;;;;;;;9.54;100.00;101793.13;5113438;28;20024;-49
2023/09/15 01:37:02;;;;;;;0.10;0.10;;;;;;;9.50;100.00;101796.38;5112999;28;20110;-48
2023/09/15 01:39:30;;;;;;;0.20;0.20;;;;;;;9.47;100.00;101791.94;5113318;28;20073;-50
2023/09/15 01:41:59;;;;;;;0.10;0.10;;;;;;;9.46;100.00;101795.31;5113662;28;20027;-49
2023/09/15 01:44:24;;;;;;;0.10;0.10;;;;;;;9.36;100.00;101793.09;5112523;28;20016;-49
2023/09/15 01:46:50;;;;;;;0.10;0.10;;;;;;;9.36;100.00;101793.09;5113497;28;20387;-48
2023/09/15 01:49:18;;;;;;;0.10;0.10;;;;;;;9.28;100.00;101797.00;5113402;28;20082;-49
2023/09/15 01:51:44;;;;;;;0.10;0.10;;;;;;;9.34;100.00;101799.88;5112802;28;20053;-48
2023/09/15 01:54:10;;;;;;;0.20;0.20;;;;;;;9.38;100.00;101792.38;5113672;28;20439;-50
2023/09/15 01:56:36;;;;;;;0.20;0.20;;;;;;;9.29;100.00;101786.78;5112818;28;20059;-49
2023/09/15 01:59:01;;;;;;;0.10;0.10;;;;;;;9.39;100.00;101782.97;5112626;28;20055;-47
2023/09/15 02:01:26;;;;;;;0.10;0.10;;;;;;;9.33;100.00;101782.66;5113282;28;20026;-49
2023/09/15 02:03:52;;;;;;;0.10;0.10;;;;;;;9.26;100.00;101778.00;5113592;28;20063;-49
2023/09/15 02:06:17;;;;;;;0.20;0.20;;;;;;;9.28;100.00;101785.00;5112368;28;20027;-50
2023/09/15 02:08:44;;;;;;;0.20;0.20;;;;;;;9.37;100.00;101782.00;5113242;28;20375;-49
2023/09/15 02:11:10;;;;;;;0.20;0.20;;;;;;;9.37;100.00;101775.19;5113232;28;20028;-51
2023/09/15 02:13:36;;;;;;;0.20;0.20;;;;;;;9.37;100.00;101779.44;5115811;28;20028;-49
2023/09/15 02:16:02;;;;;;;0.20;0.20;;;;;;;9.33;100.00;101787.81;5117633;28;20032;-49
2023/09/15 02:18:28;;;;;;;0.10;0.10;;;;;;;9.31;100.00;101784.28;5117284;28;20015;-49
2023/09/15 02:20:54;;;;;;;0.15;0.15;;;;;;;9.27;100.00;101783.25;5116798;28;20027;-47
2023/09/15 02:23:21;;;;;;;0.17;0.17;;;;;;;9.27;100.00;101777.22;5117295;28;20091;-47
2023/09/15 02:25:46;;;;;;;0.20;0.20;;;;;;;9.27;100.00;101792.66;5117359;28;20084;-50
2023/09/15 02:28:11;;;;;;;0.10;0.10;;;;;;;9.12;100.00;101793.66;5116370;28;20016;-46
2023/09/15 02:30:37;;;;;;;0.20;0.20;;;;;;;9.06;100.00;101780.47;5117061;28;20051;-49
2023/09/15 02:33:03;;;;;;;0.20;0.20;;;;;;;9.07;100.00;101777.97;5117387;28;20027;-49
2023/09/15 02:35:28;;;;;;;0.10;0.10;;;;;;;9.01;100.00;101781.94;5115997;28;20567;-50
2023/09/15 02:37:54;;;;;;;0.20;0.20;;;;;;;8.97;100.00;101772.28;5117139;28;20024;-48
2023/09/15 02:40:20;;;;;;;0.10;0.10;;;;;;;8.99;100.00;101765.56;5116075;28;20036;-46
2023/09/15 02:42:45;;;;;;;0.10;0.10;;;;;;;8.90;100.00;101771.97;5117308;28;20095;-50
2023/09/15 02:45:10;;;;;;;0.13;0.13;;;;;;;8.93;100.00;101771.25;5117256;28;20488;-48
2023/09/15 02:47:36;;;;;;;0.17;0.17;;;;;;;8.88;100.00;101772.69;5116011;28;20490;-46
2023/09/15 02:50:01;;;;;;;0.20;0.20;;;;;;;8.89;100.00;101767.63;5116824;28;20032;-49
2023/09/15 02:52:27;;;;;;;0.20;0.20;;;;;;;8.87;100.00;101769.25;5116647;28;20023;-49
2023/09/15 02:54:52;;;;;;;0.20;0.20;;;;;;;8.92;100.00;101769.47;5116049;28;20474;-49
2023/09/15 02:57:17;;;;;;;0.20;0.20;;;;;;;8.95;100.00;101768.75;5116079;28;20543;-50
2023/09/15 02:59:42;;;;;;;0.10;0.10;;;;;;;8.88;100.00;101773.59;5116911;28;20107;-49
2023/09/15 03:02:12;;;;;;;0.10;0.10;;;;;;;9.02;100.00;101768.28;5115919;28;20019;-49
2023/09/15 03:04:38;;;;;;;0.20;0.20;;;;;;;8.92;100.00;101764.34;5116821;27;20096;-50
2023/09/15 03:07:04;;;;;;;0.17;0.17;;;;;;;8.85;100.00;101763.16;5116651;28;20415;-45
2023/09/15 03:09:31;;;;;;;0.20;0.20;;;;;;;8.92;100.00;101766.03;5115339;28;20024;-50
2023/09/15 03:11:57;;;;;;;0.20;0.20;;;;;;;8.90;100.00;101761.69;5116540;28;20023;-49
2023/09/15 03:14:22;;;;;;;0.20;0.20;;;;;;;8.98;100.00;101756.06;5116117;28;20034;-48
2023/09/15 03:16:48;;;;;;;0.20;0.20;;;;;;;9.02;100.00;101760.56;5115525;28;20114;-50
2023/09/15 03:19:13;;;;;;;0.20;0.20;;;;;;;8.98;100.00;101764.66;5115997;28;20063;-47
2023/09/15 03:21:38;;;;;;;0.17;0.17;;;;;;;9.01;100.00;101763.94;5116305;28;20019;-49
2023/09/15 03:24:04;;;;;;;0.20;0.20;;;;;;;8.97;100.00;101762.00;5114419;28;20459;-49
2023/09/15 03:26:30;;;;;;;0.10;0.10;;;;;;;8.95;100.00;101753.31;5116104;28;20023;-49
2023/09/15 03:28:55;;;;;;;0.20;0.20;;;;;;;8.91;100.00;101747.16;5116359;28;20453;-49
2023/09/15 03:31:20;;;;;;;0.22;0.22;;;;;;;8.85;100.00;101750.28;5115065;28;20016;-48
2023/09/15 03:33:46;;;;;;;0.20;0.20;;;;;;;8.71;100.00;101748.72;5116411;28;20027;-50
2023/09/15 03:36:12;;;;;;;0.10;0.10;;;;;;;8.64;100.00;101742.38;5115930;28;20034;-50
2023/09/15 03:38:37;;;;;;;0.20;0.20;;;;;;;8.53;100.00;101749.53;5115211;28;20035;-50
2023/09/15 03:41:04;;;;;;;0.10;0.10;;;;;;;8.42;100.00;101750.63;5115834;28;20421;-50
2023/09/15 03:43:30;;;;;;;0.20;0.20;;;;;;;8.43;100.00;101747.25;5115904;28;20039;-50
2023/09/15 03:45:56;;;;;;;0.20;0.20;;;;;;;8.51;100.00;101747.69;5115113;28;20036;-50
2023/09/15 03:48:21;;;;;;;0.20;0.20;;;;;;;8.46;100.00;101742.28;5115576;28;20070;-50
2023/09/15 03:50:47;;;;;;;0.20;0.20;;;;;;;8.44;100.00;101748.13;5115008;28;20383;-46
2023/09/15 03:53:13;;;;;;;0.20;0.20;;;;;;;8.44;100.00;101738.72;5115290;27;20075;-49
2023/09/15 03:55:39;;;;;;;0.20;0.20;;;;;;;8.51;100.00;101746.00;5115807;28;20420;-49
2023/09/15 03:58:04;;;;;;;0.13;0.13;;;;;;;8.41;100.00;101743.69;5114731;28;20051;-48
2023/09/15 04:00:30;;;;;;;0.20;0.20;;;;;;;8.43;100.00;101742.13;5115434;28;20024;-50
2023/09/15 04:02:55;;;;;;;0.20;0.20;;;;;;;8.45;100.00;101735.34;5115525;28;20368;-49
2023/09/15 04:05:21;;;;;;;0.20;0.20;;;;;;;8.44;100.00;101735.28;5114459;28;20055;-49
2023/09/15 04:07:47;;;;;;;0.20;0.20;;;;;;;8.39;100.00;101740.16;5115351;28;20065;-49
2023/09/15 04:10:12;;;;;;;0.20;0.20;;;;;;;8.36;100.00;101740.88;5115118;28;20020;-48
2023/09/15 04:12:38;;;;;;;0.30;0.30;;;;;;;8.48;100.00;101733.00;5114424;28;20084;-50
2023/09/15 04:15:04;;;;;;;0.20;0.20;;;;;;;8.53;100.00;101736.69;5115202;28;20098;-47
2023/09/15 04:17:30;;;;;;;0.20;0.20;;;;;;;8.48;100.00;101735.56;5114762;28;20034;-50
2023/09/15 04:19:57;;;;;;;0.20;0.20;;;;;;;8.39;100.00;101729.88;5114397;28;20504;-50
2023/09/15 04:22:22;;;;;;;0.20;0.20;;;;;;;8.46;100.00;101726.00;5114915;27;20020;-48
2023/09/15 04:24:47;;;;;;;0.10;0.10;;;;;;;8.53;100.00;101734.13;5115019;28;20073;-50
2023/09/15 04:27:13;;;;;;;0.20;0.20;;;;;;;8.56;100.00;101726.56;5113914;28;20020;-46
2023/09/15 04:29:54;;;;;;;0.28;0.28;;;;;;;8.51;100.00;101729.69;5115276;28;20049;-48
2023/09/15 04:32:19;;;;;;;0.20;0.20;;;;;;;8.44;100.00;101720.72;5114839;28;20024;-50
2023/09/15 04:34:44;;;;;;;0.20;0.20;;;;;;;8.40;100.00;101731.66;5113884;28;20015;-49
2023/09/15 04:37:10;;;;;;;0.20;0.20;;;;;;;8.33;100.00;101734.72;5114657;28;20032;-47
2023/09/15 04:39:35;;;;;;;0.20;0.20;;;;;;;8.26;100.00;101723.22;5114674;28;20456;-47
2023/09/15 04:42:00;;;;;;;0.20;0.20;;;;;;;8.26;100.00;101719.78;5114180;28;20024;-46
2023/09/15 04:44:26;;;;;;;0.20;0.20;;;;;;;8.24;100.00;101725.72;5114582;28;20430;-49
2023/09/15 04:46:51;;;;;;;0.20;0.20;;;;;;;8.22;100.00;101724.75;5115042;28;20106;-49
2023/09/15 04:49:16;;;;;;;0.20;0.20;;;;;;;8.22;100.00;101727.34;5113613;28;20062;-47
2023/09/15 04:51:42;;;;;;;0.20;0.20;;;;;;;8.12;100.00;101726.72;5114490;28;20390;-48
2023/09/15 04:54:07;;;;;;;0.20;0.20;;;;;;;8.06;100.00;101725.59;5113693;28;20039;-49
2023/09/15 04:56:32;;;;;;;0.20;0.20;;;;;;;8.03;100.00;101729.69;5113936;28;20062;-50
2023/09/15 04:58:58;;;;;;;0.20;0.20;;;;;;;8.07;100.00;101734.22;5114501;28;20114;-51
2023/09/15 05:01:23;;;;;;;0.20;0.20;;;;;;;8.06;100.00;101735.88;5113365;28;20019;-50
2023/09/15 05:03:49;;;;;;;0.20;0.20;;;;;;;8.07;100.00;101732.50;5114529;28;20027;-48
2023/09/15 05:06:14;;;;;;;0.20;0.20;;;;;;;8.08;100.00;101735.94;5113845;28;20047;-45
2023/09/15 05:08:39;;;;;;;0.20;0.20;;;;;;;8.07;100.00;101739.34;5113494;28;20051;-49
2023/09/15 05:11:05;;;;;;;0.25;0.25;;;;;;;8.17;100.00;101739.03;5114327;28;20409;-45
2023/09/15 05:13:30;;;;;;;0.20;0.20;;;;;;;8.13;100.00;101742.22;5114037;28;20034;-47
2023/09/15 05:15:55;;;;;;;0.20;0.20;;;;;;;8.10;100.00;101741.19;5113170;27;20028;-49
2023/09/15 05:18:21;;;;;;;0.20;0.20;;;;;;;8.10;100.00;101736.94;5113721;28;20035;-48
2023/09/15 05:20:46;;;;;;;0.20;0.20;;;;;;;8.16;100.00;101742.41;5113959;28;20467;-49
2023/09/15 05:23:11;;;;;;;0.20;0.20;;;;;;;8.15;100.00;101738.06;5112918;28;20500;-44
2023/09/15 05:25:37;;;;;;;0.20;0.20;;;;;;;8.22;100.00;101750.44;5113821;28;20077;-49
2023/09/15 05:28:02;;;;;;;0.20;0.20;;;;;;;8.23;100.00;101757.31;5113925;28;20015;-49
2023/09/15 05:30:31;;;;;;;0.30;0.30;;;;;;;8.26;100.00;101754.03;5113041;28;20035;-48
2023/09/15 05:32:57;;;;;;;0.20;0.20;;;;;;;8.21;100.00;101760.59;5113865;28;20028;-45
2023/09/15 05:35:22;;;;;;;0.20;0.20;;;;;;;8.19;100.00;101752.81;5113405;28;20026;-51
2023/09/15 05:37:47;;;;;;;0.30;0.30;;;;;;;8.24;100.00;101750.53;5112996;28;20359;-45
2023/09/15 05:40:13;;;;;;;0.20;0.20;;;;;;;8.32;100.00;101750.94;5113562;28;20034;-45
2023/09/15 05:42:38;;;;;;;0.20;0.20;;;;;;;8.28;100.00;101754.13;5113870;28;20584;-43
2023/09/15 05:45:05;;;;;;;0.20;0.20;;;;;;;8.30;100.00;101750.84;5112840;28;20020;-48
2023/09/15 05:47:31;;;;;;;0.20;0.20;;;;;;;8.29;100.00;101753.31;5112704;28;20020;-47
2023/09/15 05:49:56;;;;;;;0.20;0.20;;;;;;;8.33;100.00;101751.00;5113412;28;20031;-49
2023/09/15 05:52:21;;;;;;;0.20;0.20;;;;;;;8.41;100.00;101748.84;5112674;28;20395;-44
2023/09/15 05:54:47;;;;;;;0.20;0.20;;;;;;;8.46;100.00;101752.56;5113501;28;20030;-44
2023/09/15 05:57:12;;;;;;;0.20;0.20;;;;;;;8.50;100.00;101754.50;5112814;28;20483;-48
2023/09/15 05:59:37;;;;;;;0.20;0.20;;;;;;;8.53;100.00;101749.53;5112931;28;20031;-50
2023/09/15 06:02:03;;;;;;;0.20;0.20;;;;;;;8.63;100.00;101755.16;5113412;28;20031;-50
2023/09/15 06:04:28;;;;;;;0.20;0.20;;;;;;;8.69;100.00;101745.19;5112327;28;20056;-44
2023/09/15 06:06:53;;;;;;;0.20;0.20;;;;;;;8.73;100.00;101749.69;5113301;28;20449;-46
2023/09/15 06:09:19;;;;;;;0.10;0.10;;;;;;;8.79;100.00;101747.44;5113194;28;20093;-46
2023/09/15 06:11:44;;;;;;;0.20;0.20;;;;;;;8.87;100.00;101753.84;5112654;28;20032;-44
2023/09/15 06:14:09;;;;;;;0.20;0.20;;;;;;;8.99;100.00;101755.28;5113237;28;20161;-48
2023/09/15 06:16:36;;;;;;;0.20;0.20;;;;;;;9.05;100.00;101760.69;5112817;28;20363;-45
2023/09/15 06:19:02;;;;;;;0.20;0.20;;;;;;;9.11;100.00;101755.00;5112435;28;20028;-46
2023/09/15 06:21:28;;;;;;;0.20;0.20;;;;;;;9.20;100.00;101753.75;5112843;28;20028;-46
2023/09/15 06:23:53;;;;;;;0.20;0.20;;;;;;;9.25;100.00;101754.00;5113439;28;20027;-45
2023/09/15 06:26:18;;;;;;;0.20;0.20;;;;;;;9.39;100.00;101762.41;5112218;28;20023;-47
2023/09/15 06:28:44;;;;;;;0.20;0.20;;;;;;;9.44;100.00;101757.47;5113247;28;20020;-47
2023/09/15 06:31:09;;;;;;;0.20;0.20;;;;;;;9.50;100.00;101753.53;5113093;28;20050;-49
2023/09/15 06:33:34;;;;;;;0.20;0.20;;;;;;;9.63;100.00;101752.41;5111918;28;20055;-45
2023/09/15 06:36:01;;;;;;;0.20;0.20;;;;;;;9.71;100.00;101751.09;5112903;28;20020;-45
2023/09/15 06:38:26;;;;;;;0.20;0.20;;;;;;;9.84;100.00;101754.25;5112937;28;20051;-44
2023/09/15 06:40:52;;;;;;;0.10;0.10;;;;;;;9.96;100.00;101756.50;5112329;28;20043;-51
2023/09/15 06:43:18;;;;;;;0.20;0.20;;;;;;;9.99;100.00;101751.50;5112818;28;20031;-48
2023/09/15 06:45:43;;;;;;;0.20;0.20;;;;;;;10.04;100.00;101745.75;5113034;28;20097;-45
2023/09/15 06:48:08;;;;;;;0.20;0.20;;;;;;;10.13;100.00;101745.28;5112107;28;20495;-49
2023/09/15 06:50:33;;;;;;;0.20;0.20;;;;;;;10.28;100.00;101739.09;5112559;28;20076;-46
2023/09/15 06:52:59;;;;;;;0.20;0.20;;;;;;;10.36;100.00;101745.50;5113047;28;20110;-49
2023/09/15 06:55:25;;;;;;;0.20;0.20;;;;;;;10.47;100.00;101731.41;5111964;28;20069;-49
2023/09/15 06:57:51;;;;;;;0.20;0.20;;;;;;;10.59;100.00;101736.19;5112980;28;20491;-50
2023/09/15 07:00:16;;;;;;;0.20;0.20;;;;;;;10.67;100.00;101733.97;5116368;27;20049;-48
2023/09/15 07:02:42;;;;;;;0.20;0.20;;;;;;;10.75;100.00;101737.72;5115892;28;20027;-49
2023/09/15 07:05:07;;;;;;;0.20;0.20;;;;;;;10.83;100.00;101736.38;5116582;28;20031;-49
2023/09/15 07:07:33;;;;;;;0.20;0.20;;;;;;;10.91;100.00;101733.22;5116216;28;20129;-44
2023/09/15 07:09:58;;;;;;;0.20;0.20;;;;;;;11.06;100.00;101743.34;5116356;27;20054;-50
2023/09/15 07:12:23;;;;;;;0.10;0.10;;;;;;;11.17;100.00;101736.94;5116258;28;20052;-51
2023/09/15 07:14:51;;;;;;;0.20;0.20;;;;;;;11.26;100.00;101741.56;5115867;28;20490;-50
2023/09/15 07:17:17;;;;;;;0.20;0.20;;;;;;;11.32;100.00;101736.66;5115966;28;20042;-49
2023/09/15 07:19:44;;;;;;;0.20;0.20;;;;;;;11.53;100.00;101732.38;5116486;28;20114;-45
2023/09/15 07:22:12;;;;;;;0.20;0.20;;;;;;;11.66;100.00;101732.88;5115806;28;20027;-50
2023/09/15 07:24:41;;;;;;;0.20;0.20;;;;;;;11.72;100.00;101730.50;5116322;28;20103;-44
2023/09/15 07:27:09;;;;;;;0.10;0.10;;;;;;;11.82;100.00;101734.34;5116442;28;20024;-49
2023/09/15 07:29:35;;;;;;;0.10;0.10;;;;;;;11.84;100.00;101731.00;5115146;28;20526;-50
2023/09/15 07:32:01;;;;;;;0.20;0.20;;;;;;;11.94;100.00;101731.34;5116018;28;20505;-50
2023/09/15 07:34:26;;;;;;;0.20;0.20;;;;;;;12.15;100.00;101727.00;5115965;28;20020;-50
2023/09/15 07:36:51;;;;;;;0.10;0.10;;;;;;;12.23;100.00;101713.50;5115316;28;20063;-49
2023/09/15 07:39:17;;;;;;;0.20;0.20;;;;;;;12.24;100.00;101718.72;5115821;28;20084;-49
2023/09/15 07:41:43;;;;;;;0.10;0.10;;;;;;;12.31;100.00;101720.69;5116087;28;20020;-49
2023/09/15 07:44:08;;;;;;;0.10;0.10;;;;;;;12.49;100.00;101725.66;5115163;28;20493;-50
2023/09/15 07:46:34;;;;;;;0.10;0.10;;;;;;;12.55;100.00;101722.44;5115766;28;20538;-45
2023/09/15 07:48:59;;;;;;;0.20;0.20;;;;;;;12.65;100.00;101715.84;5115992;28;20020;-50
2023/09/15 07:51:27;;;;;;;0.17;0.17;;;;;;;12.88;100.00;101715.78;5114812;28;20019;-46
2023/09/15 07:53:53;;;;;;;0.20;0.20;;;;;;;12.89;100.00;101715.81;5115859;27;20035;-44
2023/09/15 07:56:20;;;;;;;0.10;0.10;;;;;;;12.94;100.00;101713.41;5115216;28;20052;-49
2023/09/15 07:58:46;;;;;;;0.20;0.20;;;;;;;13.05;100.00;101714.63;5114938;28;20028;-50
2023/09/15 08:01:11;;;;;;;0.10;0.10;;;;;;;13.15;100.00;101713.22;5115338;28;20022;-46
2023/09/15 08:03:38;;;;;;;0.10;0.10;;;;;;;13.37;100.00;101712.25;5115488;28;20046;-45
2023/09/15 08:06:07;;;;;;;0.20;0.20;;;;;;;13.38;100.00;101710.56;5114892;28;20058;-49
2023/09/15 08:08:32;;;;;;;0.10;0.10;;;;;;;13.56;100.00;101710.25;5115253;28;20031;-50
2023/09/15 08:10:59;;;;;;;0.20;0.20;;;;;;;13.72;100.00;101706.41;5114206;28;20026;-44
2023/09/15 08:13:24;;;;;;;0.10;0.10;;;;;;;13.89;100.00;101706.91;5115224;28;20034;-47
2023/09/15 08:15:51;;;;;;;0.10;0.10;;;;;;;14.14;100.00;101706.78;5115139;28;20032;-50
2023/09/15 08:18:18;;;;;;;0.10;0.10;;;;;;;14.07;100.00;101717.84;5114432;28;20107;-46
2023/09/15 08:20:43;;;;;;;0.10;0.10;;;;;;;14.27;100.00;101704.56;5115379;28;20031;-50
2023/09/15 08:23:09;;;;;;;0.10;0.10;;;;;;;14.32;100.00;101708.16;5115188;28;20035;-49
2023/09/15 08:25:34;;;;;;;0.10;0.10;;;;;;;14.40;100.00;101709.25;5114021;28;20026;-49
2023/09/15 08:28:02;;;;;;;0.10;0.10;;;;;;;14.63;100.00;101717.66;5114845;28;20072;-49
2023/09/15 08:30:28;;;;;;;0.10;0.10;;;;;;;14.69;100.00;101709.19;5114547;28;20088;-49
2023/09/15 08:32:53;;;;;;;0.10;0.10;;;;;;;14.70;100.00;101705.75;5114276;28;20455;-46
2023/09/15 08:35:18;;;;;;;0.10;0.10;;;;;;;14.85;100.00;101712.16;5114552;28;20028;-46
2023/09/15 08:37:43;;;;;;;0.10;0.10;;;;;;;14.93;100.00;101713.28;5114800;28;20078;-45
2023/09/15 08:40:10;;;;;;;0.10;0.10;;;;;;;14.92;100.00;101703.72;5114051;28;20020;-45
2023/09/15 08:42:35;;;;;;;0.10;0.10;;;;;;;14.97;100.00;101707.31;5114475;28;20046;-45
2023/09/15 08:45:04;;;;;;;0.10;0.10;;;;;;;15.27;100.00;101714.09;5114552;28;20023;-44
2023/09/15 08:47:34;;;;;;;0.10;0.10;;;;;;;15.60;100.00;101707.94;5113812;28;20023;-45
2023/09/15 08:50:03;;;;;;;0.10;0.10;;;;;;;15.43;100.00;101700.63;5114858;28;20028;-45
2023/09/15 08:52:29;;;;;;;0.10;0.10;;;;;;;15.63;100.00;101708.00;5114191;28;20035;-46
2023/09/15 08:54:56;;;;;;;0.10;0.10;;;;;;;15.72;100.00;101705.59;5113915;28;20023;-48
2023/09/15 08:57:21;;;;;;;0.10;0.10;;;;;;;15.90;100.00;101699.09;5113770;28;20482;-45
2023/09/15 08:59:49;;;;;;;0.10;0.10;;;;;;;15.99;100.00;101699.28;5114597;28;20042;-45
2023/09/15 09:02:15;;;;;;;0.10;0.10;;;;;;;16.38;100.00;101692.25;5113433;28;20151;-47
2023/09/15 09:04:40;;;;;;;0.10;0.10;;;;;;;16.62;100.00;101689.22;5114499;28;20107;-46
2023/09/15 09:07:07;;;;;;;0.10;0.10;;;;;;;16.68;100.00;101688.44;5114335;28;20386;-45
2023/09/15 09:09:34;;;;;;;0.10;0.10;;;;;;;16.98;100.00;101693.34;5113593;28;20028;-45
2023/09/15 09:11:59;;;;;;;0.10;0.10;;;;;;;16.83;100.00;101691.31;5114068;28;20035;-45
2023/09/15 09:14:25;;;;;;;0.10;0.10;;;;;;;17.10;100.00;101693.53;5112932;28;20023;-46
2023/09/15 09:16:52;;;;;;;0.10;0.10;;;;;;;17.33;100.00;101698.25;5114097;28;20031;-49
2023/09/15 09:19:18;;;;;;;0.00;0.00;;;;;;;17.46;100.00;101698.44;5113679;28;20117;-50
2023/09/15 09:21:44;;;;;;;0.10;0.10;;;;;;;17.58;100.00;101693.41;5112571;28;20044;-46
2023/09/15 09:24:10;;;;;;;0.10;0.10;;;;;;;18.05;100.00;101694.91;5113945;28;20102;-44
2023/09/15 09:26:36;;;;;;;0.00;0.00;;;;;;;18.53;100.00;101690.22;5113636;28;20102;-45
2023/09/15 09:29:02;;;;;;;0.00;0.00;;;;;;;18.60;100.00;101689.41;5113276;28;20020;-49
2023/09/15 09:31:29;;;;;;;0.10;0.10;;;;;;;18.63;100.00;101692.06;5113517;28;20031;-45
2023/09/15 09:33:55;;;;;;;0.10;0.10;;;;;;;18.79;96.17;101684.38;5113949;28;20102;-46
2023/09/15 09:36:21;;;;;;;0.10;0.10;;;;;;;19.41;98.13;101686.63;5112529;27;20107;-45
2023/09/15 09:38:49;;;;;;;0.10;0.10;;;;;;;19.56;91.83;101696.31;5113804;28;20065;-46
2023/09/15 09:41:16;;;;;;;0.00;0.00;;;;;;;20.11;90.63;101691.34;5113276;28;20463;-45
2023/09/15 09:43:42;;;;;;;;;;;;;;;20.38;100.00;101693.19;5113378;28;20098;-48
2023/09/15 09:46:10;;;;;;;0.10;0.10;;;;;;;20.81;82.28;101687.16;5113524;28;20310;-46
2023/09/15 09:48:36;;;;;;;0.00;0.00;;;;;;;21.62;80.23;101685.34;5113419;28;20065;-45
2023/09/15 09:51:03;;;;;;;0.00;0.00;;;;;;;21.78;76.46;101678.28;5112845;28;20471;-45
2023/09/15 09:53:29;;;;;;;0.00;0.00;;;;;;;21.65;70.03;101683.59;5113398;28;20022;-45
2023/09/15 09:55:59;;;;;;;0.00;0.00;;;;;;;22.57;70.22;101691.91;5113334;28;20065;-46
2023/09/15 09:58:24;;;;;;;0.00;0.00;;;;;;;22.81;65.08;101685.59;5112397;28;20463;-46
2023/09/15 10:00:50;;;;;;;0.00;0.00;;;;;;;23.54;64.24;101677.03;5113278;28;20031;-46
2023/09/15 10:03:21;;;;;;;0.00;0.00;;;;;;;23.39;61.43;101695.63;5113245;28;20051;-46
2023/09/15 10:05:50;;;;;;;0.00;0.00;;;;;;;23.82;60.19;101688.13;5112742;28;20024;-46
2023/09/15 10:08:16;;;;;;;0.00;0.00;;;;;;;23.89;56.61;101686.25;5112956;28;20020;-49
2023/09/15 10:10:43;;;;;;;0.00;0.00;;;;;;;23.87;55.11;101676.66;5112803;28;20096;-48
2023/09/15 10:13:13;;;;;;;0.00;0.00;;;;;;;24.05;57.13;101678.19;5113441;28;20022;-45
2023/09/15 10:15:40;;;;;;;0.00;0.00;;;;;;;25.12;56.32;101683.56;5113460;28;20042;-46
2023/09/15 10:18:08;;;;;;;0.00;0.00;;;;;;;25.36;53.09;101678.78;5112502;28;20028;-46
2023/09/15 10:20:35;;;;;;;0.00;0.00;;;;;;;25.72;49.20;101671.03;5112890;28;20027;-45
2023/09/15 10:23:01;;;;;;;0.00;0.00;;;;;;;25.48;49.95;101667.97;5113168;28;20031;-47
2023/09/15 10:25:27;;;;;;;0.00;0.00;;;;;;;26.35;49.41;101660.00;5112324;28;20084;-47
2023/09/15 10:27:54;;;;;;;0.00;0.00;;;;;;;26.32;47.83;101662.72;5113341;28;20035;-46
2023/09/15 10:30:20;;;;;;;0.00;0.00;;;;;;;26.84;46.19;101650.03;5112958;28;20023;-45
2023/09/15 10:32:45;;;;;;;0.00;0.00;;;;;;;26.23;45.68;101651.44;5112432;28;20035;-50
2023/09/15 10:35:12;;;;;;;0.00;0.00;;;;;;;26.01;46.84;101645.75;5117722;27;20019;-47
2023/09/15 10:37:42;;;;;;;0.00;0.00;;;;;;;25.72;48.44;101649.03;5117024;28;20491;-46
2023/09/15 10:40:07;;;;;;;0.00;0.00;;;;;;;25.61;47.96;101647.47;5116568;28;20123;-46
2023/09/15 10:42:34;;;;;;;0.00;0.00;;;;;;;25.60;48.09;101640.50;5116921;28;20465;-45
2023/09/15 10:45:10;;;;;;;0.00;0.00;;;;;;;26.19;48.29;101633.09;5117207;28;20058;-47
2023/09/15 10:47:35;;;;;;;0.00;0.00;;;;;;;25.95;45.42;101638.84;5115960;28;20024;-47
2023/09/15 10:50:01;;;;;;;0.00;0.00;;;;;;;25.94;46.94;101639.75;5116830;28;20015;-47
2023/09/15 10:52:37;;;;;;;0.00;0.00;;;;;;;26.52;47.40;101633.16;5116608;28;20126;-45
2023/09/15 10:55:03;;;;;;;0.00;0.00;;;;;;;26.25;47.82;101628.50;5116531;28;20033;-46
2023/09/15 10:57:29;;;;;;;0.00;0.00;;;;;;;27.19;45.34;101627.03;5116381;28;20050;-45
2023/09/15 10:59:55;;;;;;;0.00;0.00;;;;;;;27.47;44.46;101627.16;5116209;28;20028;-47
2023/09/15 11:02:21;;;;;;;0.00;0.00;;;;;;;27.35;42.10;101627.50;5116497;28;20023;-45
2023/09/15 11:04:48;;;;;;;0.00;0.00;;;;;;;27.42;43.31;101627.31;5116729;28;20370;-46
2023/09/15 11:07:14;;;;;;;0.00;0.00;;;;;;;27.79;43.28;101628.00;5115696;28;20039;-46
2023/09/15 11:09:43;;;;;;;0.00;0.00;;;;;;;27.07;42.43;101618.53;5116696;28;20026;-46
2023/09/15 11:12:11;;;;;;;0.00;0.00;;;;;;;27.16;41.49;101620.06;5116535;28;20501;-46
2023/09/15 11:14:36;;;;;;;0.00;0.00;;;;;;;27.42;41.64;101615.84;5115420;28;20024;-47
2023/09/15 11:17:03;;;;;;;0.00;0.00;;;;;;;28.53;40.63;101619.50;5116338;28;20031;-46
2023/09/15 11:19:30;;;;;;;;;;;;;;;29.32;45.29;101615.00;5116658;28;20031;-49
2023/09/15 11:21:56;;;;;;;0.00;0.00;;;;;;;28.93;38.93;101606.69;5115658;28;19947;-50